Check out our new PWSWeather beta!
PWSweather.com
Personal Weather Stations
Station Observations
OINOFYTA
Oinofyta Greece, OinofytaGR 320 11

Oinofyta GreeceOinofytaGR 320 11

Lat: 38.3080648, Lon: 23.6391172

Elevation: 354

Station Type: ProWeatherStation 1080

https://oinofytaweather.gr/

High Low Average
Temperature 61.7°F16.5°C 48.2°F9.0°C 56.0°F13.3°C
Dew Point 45.1°F7.3°C 38.4°F3.6°C 41.5°F5.3°C
Winds 8.8 mph 14.2 kmh Calm Calm 4.0 mph WSW6.4 kmh WSW
Wind Gusts 17.4 mph28.0 kmh -- 9.0 mph14.5 kmh
Humidity 85% 44% 59%
Pressure 30.27 in1025.1 mb 30.20 in1022.7 mb -
Precipitation 0.00 in0.0 mm - -
Hour Temp Dew Point Humidity Winds Wind Gusts Pressure Precip Precip Rate Daily Precip Total
12:00 AM 54.9°F12.7°C 44.5°F6.9°C 68% 0.7 mph SW1.1 kmh SW 3.1 mph5.0 kmh 30.21 in1023.0 mb 0.00 in0.0 mm 0.00 in0.0 mm 0.00 in0.0 mm
12:05 AM 54.9°F12.7°C 44.5°F6.9°C 68% 0.4 mph SW0.6 kmh SW 2.2 mph3.5 kmh 30.21 in1023.0 mb 0.00 in0.0 mm 0.00 in0.0 mm 0.00 in0.0 mm
12:10 AM 54.9°F12.7°C 43.3°F6.3°C 65% 0.8 mph WSW1.3 kmh WSW 3.8 mph6.1 kmh 30.20 in1022.7 mb 0.00 in0.0 mm 0.00 in0.0 mm 0.00 in0.0 mm
12:15 AM 55.2°F12.9°C 43.3°F6.3°C 64% 1.9 mph NNW3.1 kmh NNW 5.4 mph8.7 kmh 30.21 in1023.0 mb 0.00 in0.0 mm 0.00 in0.0 mm 0.00 in0.0 mm
12:20 AM 55.4°F13.0°C 43.0°F6.1°C 63% 2.2 mph NW3.5 kmh NW 5.4 mph8.7 kmh 30.20 in1022.7 mb 0.00 in0.0 mm 0.00 in0.0 mm 0.00 in0.0 mm
12:25 AM 55.6°F13.1°C 43.6°F6.4°C 64% 1.7 mph NW2.7 kmh NW 4.5 mph7.2 kmh 30.21 in1023.0 mb 0.00 in0.0 mm 0.00 in0.0 mm 0.00 in0.0 mm
12:30 AM 55.6°F13.1°C 43.2°F6.2°C 63% 1.9 mph NW3.1 kmh NW 6.0 mph9.7 kmh 30.20 in1022.7 mb 0.00 in0.0 mm 0.00 in0.0 mm 0.00 in0.0 mm
12:35 AM 55.6°F13.1°C 43.6°F6.4°C 64% 2.2 mph NW3.5 kmh NW 6.0 mph9.7 kmh 30.20 in1022.7 mb 0.00 in0.0 mm 0.00 in0.0 mm 0.00 in0.0 mm
12:40 AM 55.8°F13.2°C 43.8°F6.6°C 64% 2.4 mph NW3.9 kmh NW 6.0 mph9.7 kmh 30.20 in1022.7 mb 0.00 in0.0 mm 0.00 in0.0 mm 0.00 in0.0 mm
12:45 AM 55.6°F13.1°C 43.6°F6.4°C 64% 2.6 mph WNW4.2 kmh WNW 6.9 mph11.1 kmh 30.20 in1022.7 mb 0.00 in0.0 mm 0.00 in0.0 mm 0.00 in0.0 mm
12:50 AM 55.6°F13.1°C 43.6°F6.4°C 64% 2.8 mph NW4.5 kmh NW 6.9 mph11.1 kmh 30.20 in1022.7 mb 0.00 in0.0 mm 0.00 in0.0 mm 0.00 in0.0 mm
12:55 AM 55.6°F13.1°C 43.6°F6.4°C 64% 2.6 mph NW4.2 kmh NW 6.0 mph9.7 kmh 30.21 in1023.0 mb 0.00 in0.0 mm 0.00 in0.0 mm 0.00 in0.0 mm
01:00 AM 55.6°F13.1°C 44.0°F6.7°C 65% 2.2 mph NW3.5 kmh NW 6.0 mph9.7 kmh 30.21 in1023.0 mb 0.00 in0.0 mm 0.00 in0.0 mm 0.00 in0.0 mm
01:05 AM 55.6°F13.1°C 44.4°F6.9°C 66% 2.1 mph W3.4 kmh W 6.0 mph9.7 kmh 30.21 in1023.0 mb 0.00 in0.0 mm 0.00 in0.0 mm 0.00 in0.0 mm
01:10 AM 55.4°F13.0°C 44.6°F7.0°C 67% 2.2 mph W3.5 kmh W 6.0 mph9.7 kmh 30.21 in1023.0 mb 0.00 in0.0 mm 0.00 in0.0 mm 0.00 in0.0 mm
01:15 AM 55.4°F13.0°C 44.6°F7.0°C 67% 2.3 mph W3.7 kmh W 6.0 mph9.7 kmh 30.21 in1023.0 mb 0.00 in0.0 mm 0.00 in0.0 mm 0.00 in0.0 mm
01:20 AM 55.2°F12.9°C 44.9°F7.2°C 68% 2.0 mph W3.2 kmh W 5.4 mph8.7 kmh 30.21 in1023.0 mb 0.00 in0.0 mm 0.00 in0.0 mm 0.00 in0.0 mm
01:25 AM 55.0°F12.8°C 44.7°F7.1°C 68% 1.9 mph WSW3.1 kmh WSW 5.4 mph8.7 kmh 30.21 in1023.0 mb 0.00 in0.0 mm 0.00 in0.0 mm 0.00 in0.0 mm
01:30 AM 54.9°F12.7°C 44.9°F7.2°C 69% 2.0 mph W3.2 kmh W 4.5 mph7.2 kmh 30.21 in1023.0 mb 0.00 in0.0 mm 0.00 in0.0 mm 0.00 in0.0 mm
01:35 AM 54.7°F12.6°C 44.7°F7.1°C 69% 1.9 mph W3.1 kmh W 4.5 mph7.2 kmh 30.21 in1023.0 mb 0.00 in0.0 mm 0.00 in0.0 mm 0.00 in0.0 mm
01:40 AM 54.7°F12.6°C 44.7°F7.1°C 69% 1.9 mph WSW3.1 kmh WSW 4.5 mph7.2 kmh 30.20 in1022.7 mb 0.00 in0.0 mm 0.00 in0.0 mm 0.00 in0.0 mm
01:45 AM 54.9°F12.7°C 44.5°F6.9°C 68% 1.6 mph W2.6 kmh W 4.5 mph7.2 kmh 30.21 in1023.0 mb 0.00 in0.0 mm 0.00 in0.0 mm 0.00 in0.0 mm
01:50 AM 54.9°F12.7°C 44.1°F6.7°C 67% 1.6 mph W2.6 kmh W 4.5 mph7.2 kmh 30.21 in1023.0 mb 0.00 in0.0 mm 0.00 in0.0 mm 0.00 in0.0 mm
01:55 AM 54.9°F12.7°C 44.1°F6.7°C 67% 1.7 mph W2.7 kmh W 4.5 mph7.2 kmh 30.21 in1023.0 mb 0.00 in0.0 mm 0.00 in0.0 mm 0.00 in0.0 mm
02:00 AM 55.0°F12.8°C 44.3°F6.8°C 67% 1.7 mph W2.7 kmh W 5.4 mph8.7 kmh 30.21 in1023.0 mb 0.00 in0.0 mm 0.00 in0.0 mm 0.00 in0.0 mm
02:05 AM 55.0°F12.8°C 43.9°F6.6°C 66% 1.9 mph W3.1 kmh W 5.4 mph8.7 kmh 30.21 in1023.0 mb 0.00 in0.0 mm 0.00 in0.0 mm 0.00 in0.0 mm
02:10 AM 55.0°F12.8°C 44.7°F7.1°C 68% 1.6 mph WSW2.6 kmh WSW 5.4 mph8.7 kmh 30.21 in1023.0 mb 0.00 in0.0 mm 0.00 in0.0 mm 0.00 in0.0 mm
02:15 AM 54.9°F12.7°C 44.9°F7.2°C 69% 1.1 mph SW1.8 kmh SW 3.8 mph6.1 kmh 30.21 in1023.0 mb 0.00 in0.0 mm 0.00 in0.0 mm 0.00 in0.0 mm
02:20 AM 54.7°F12.6°C 45.1°F7.3°C 70% 1.3 mph SW2.1 kmh SW 3.8 mph6.1 kmh 30.21 in1023.0 mb 0.00 in0.0 mm 0.00 in0.0 mm 0.00 in0.0 mm
02:25 AM 54.5°F12.5°C 44.9°F7.2°C 70% 1.9 mph WSW3.1 kmh WSW 5.4 mph8.7 kmh 30.21 in1023.0 mb 0.00 in0.0 mm 0.00 in0.0 mm 0.00 in0.0 mm
02:30 AM 54.5°F12.5°C 44.9°F7.2°C 70% 2.2 mph WSW3.5 kmh WSW 5.4 mph8.7 kmh 30.21 in1023.0 mb 0.00 in0.0 mm 0.00 in0.0 mm 0.00 in0.0 mm
02:35 AM 54.5°F12.5°C 44.9°F7.2°C 70% 1.6 mph WSW2.6 kmh WSW 5.4 mph8.7 kmh 30.21 in1023.0 mb 0.00 in0.0 mm 0.00 in0.0 mm 0.00 in0.0 mm
02:40 AM 54.5°F12.5°C 44.9°F7.2°C 70% 1.2 mph WSW1.9 kmh WSW 3.8 mph6.1 kmh 30.21 in1023.0 mb 0.00 in0.0 mm 0.00 in0.0 mm 0.00 in0.0 mm
02:45 AM 54.5°F12.5°C 44.9°F7.2°C 70% 1.1 mph WSW1.8 kmh WSW 3.1 mph5.0 kmh 30.21 in1023.0 mb 0.00 in0.0 mm 0.00 in0.0 mm 0.00 in0.0 mm
02:50 AM 54.3°F12.4°C 44.8°F7.1°C 70% 1.2 mph W1.9 kmh W 4.5 mph7.2 kmh 30.21 in1023.0 mb 0.00 in0.0 mm 0.00 in0.0 mm 0.00 in0.0 mm
02:55 AM 54.3°F12.4°C 44.8°F7.1°C 70% 1.7 mph WSW2.7 kmh WSW 4.5 mph7.2 kmh 30.21 in1023.0 mb 0.00 in0.0 mm 0.00 in0.0 mm 0.00 in0.0 mm
03:00 AM 54.5°F12.5°C 44.9°F7.2°C 70% 1.6 mph WSW2.6 kmh WSW 6.9 mph11.1 kmh 30.21 in1023.0 mb 0.00 in0.0 mm 0.00 in0.0 mm 0.00 in0.0 mm
03:05 AM 54.3°F12.4°C 44.8°F7.1°C 70% 1.6 mph WSW2.6 kmh WSW 6.9 mph11.1 kmh 30.21 in1023.0 mb 0.00 in0.0 mm 0.00 in0.0 mm 0.00 in0.0 mm
03:10 AM 54.3°F12.4°C 44.8°F7.1°C 70% 1.7 mph WSW2.7 kmh WSW 6.0 mph9.7 kmh 30.20 in1022.7 mb 0.00 in0.0 mm 0.00 in0.0 mm 0.00 in0.0 mm
03:15 AM 54.3°F12.4°C 44.8°F7.1°C 70% 1.8 mph WSW2.9 kmh WSW 6.0 mph9.7 kmh 30.20 in1022.7 mb 0.00 in0.0 mm 0.00 in0.0 mm 0.00 in0.0 mm
03:20 AM 54.3°F12.4°C 44.8°F7.1°C 70% 1.9 mph SW3.1 kmh SW 4.5 mph7.2 kmh 30.20 in1022.7 mb 0.00 in0.0 mm 0.00 in0.0 mm 0.00 in0.0 mm
03:25 AM 54.3°F12.4°C 45.1°F7.3°C 71% 1.9 mph SW3.1 kmh SW 5.4 mph8.7 kmh 30.20 in1022.7 mb 0.00 in0.0 mm 0.00 in0.0 mm 0.00 in0.0 mm
03:30 AM 54.1°F12.3°C 45.0°F7.2°C 71% 1.1 mph SW1.8 kmh SW 5.4 mph8.7 kmh 30.20 in1022.7 mb 0.00 in0.0 mm 0.00 in0.0 mm 0.00 in0.0 mm
03:35 AM 54.1°F12.3°C 45.0°F7.2°C 71% 0.9 mph SW1.4 kmh SW 3.8 mph6.1 kmh 30.20 in1022.7 mb 0.00 in0.0 mm 0.00 in0.0 mm 0.00 in0.0 mm
03:40 AM 54.1°F12.3°C 44.2°F6.8°C 69% 1.4 mph SW2.3 kmh SW 3.8 mph6.1 kmh 30.20 in1022.7 mb 0.00 in0.0 mm 0.00 in0.0 mm 0.00 in0.0 mm
03:45 AM 54.3°F12.4°C 44.0°F6.7°C 68% 1.5 mph WSW2.4 kmh WSW 5.4 mph8.7 kmh 30.20 in1022.7 mb 0.00 in0.0 mm 0.00 in0.0 mm 0.00 in0.0 mm
03:50 AM 54.5°F12.5°C 42.2°F5.7°C 63% 1.2 mph W1.9 kmh W 5.4 mph8.7 kmh 30.20 in1022.7 mb 0.00 in0.0 mm 0.00 in0.0 mm 0.00 in0.0 mm
03:55 AM 54.7°F12.6°C 42.3°F5.7°C 63% 0.7 mph W1.1 kmh W 3.8 mph6.1 kmh 30.20 in1022.7 mb 0.00 in0.0 mm 0.00 in0.0 mm 0.00 in0.0 mm
04:00 AM 54.9°F12.7°C 40.4°F4.7°C 58% 0.7 mph W1.1 kmh W 4.5 mph7.2 kmh 30.20 in1022.7 mb 0.00 in0.0 mm 0.00 in0.0 mm 0.00 in0.0 mm
04:05 AM 55.0°F12.8°C 40.1°F4.5°C 57% 1.1 mph NW1.8 kmh NW 4.5 mph7.2 kmh 30.20 in1022.7 mb 0.00 in0.0 mm 0.00 in0.0 mm 0.00 in0.0 mm
04:10 AM 55.4°F13.0°C 40.0°F4.4°C 56% 1.6 mph NW2.6 kmh NW 5.4 mph8.7 kmh 30.20 in1022.7 mb 0.00 in0.0 mm 0.00 in0.0 mm 0.00 in0.0 mm
04:15 AM 55.6°F13.1°C 39.2°F4.0°C 54% 2.7 mph NW4.3 kmh NW 8.3 mph13.4 kmh 30.20 in1022.7 mb 0.00 in0.0 mm 0.00 in0.0 mm 0.00 in0.0 mm
04:20 AM 55.6°F13.1°C 39.2°F4.0°C 54% 3.6 mph NNW5.8 kmh NNW 8.3 mph13.4 kmh 30.20 in1022.7 mb 0.00 in0.0 mm 0.00 in0.0 mm 0.00 in0.0 mm
04:25 AM 55.6°F13.1°C 39.2°F4.0°C 54% 3.3 mph N5.3 kmh N 7.6 mph12.2 kmh 30.20 in1022.7 mb 0.00 in0.0 mm 0.00 in0.0 mm 0.00 in0.0 mm
04:30 AM 55.6°F13.1°C 39.2°F4.0°C 54% 2.7 mph N4.3 kmh N 6.0 mph9.7 kmh 30.20 in1022.7 mb 0.00 in0.0 mm 0.00 in0.0 mm 0.00 in0.0 mm
04:35 AM 55.6°F13.1°C 39.2°F4.0°C 54% 3.3 mph NNW5.3 kmh NNW 9.8 mph15.8 kmh 30.20 in1022.7 mb 0.00 in0.0 mm 0.00 in0.0 mm 0.00 in0.0 mm
04:40 AM 55.8°F13.2°C 38.9°F3.8°C 53% 4.2 mph NNW6.8 kmh NNW 9.8 mph15.8 kmh 30.20 in1022.7 mb 0.00 in0.0 mm 0.00 in0.0 mm 0.00 in0.0 mm
04:45 AM 55.8°F13.2°C 38.9°F3.8°C 53% 5.1 mph N8.2 kmh N 9.8 mph15.8 kmh 30.20 in1022.7 mb 0.00 in0.0 mm 0.00 in0.0 mm 0.00 in0.0 mm
04:50 AM 55.8°F13.2°C 38.9°F3.8°C 53% 4.6 mph N7.4 kmh N 9.8 mph15.8 kmh 30.21 in1023.0 mb 0.00 in0.0 mm 0.00 in0.0 mm 0.00 in0.0 mm
04:55 AM 55.8°F13.2°C 38.9°F3.8°C 53% 3.6 mph NNW5.8 kmh NNW 8.3 mph13.4 kmh 30.21 in1023.0 mb 0.00 in0.0 mm 0.00 in0.0 mm 0.00 in0.0 mm
05:00 AM 55.8°F13.2°C 38.9°F3.8°C 53% 3.5 mph NNW5.6 kmh NNW 7.6 mph12.2 kmh 30.21 in1023.0 mb 0.00 in0.0 mm 0.00 in0.0 mm 0.00 in0.0 mm
05:05 AM 55.8°F13.2°C 38.9°F3.8°C 53% 3.1 mph N5.0 kmh N 7.6 mph12.2 kmh 30.21 in1023.0 mb 0.00 in0.0 mm 0.00 in0.0 mm 0.00 in0.0 mm
05:10 AM 55.8°F13.2°C 39.4°F4.1°C 54% 3.7 mph NNW6.0 kmh NNW 9.2 mph14.8 kmh 30.20 in1022.7 mb 0.00 in0.0 mm 0.00 in0.0 mm 0.00 in0.0 mm
05:15 AM 55.8°F13.2°C 39.4°F4.1°C 54% 4.3 mph NNW6.9 kmh NNW 9.2 mph14.8 kmh 30.21 in1023.0 mb 0.00 in0.0 mm 0.00 in0.0 mm 0.00 in0.0 mm
05:20 AM 55.8°F13.2°C 38.9°F3.8°C 53% 4.6 mph NNW7.4 kmh NNW 10.7 mph17.2 kmh 30.21 in1023.0 mb 0.00 in0.0 mm 0.00 in0.0 mm 0.00 in0.0 mm
05:25 AM 55.8°F13.2°C 38.9°F3.8°C 53% 5.0 mph NNW8.0 kmh NNW 10.7 mph17.2 kmh 30.21 in1023.0 mb 0.00 in0.0 mm 0.00 in0.0 mm 0.00 in0.0 mm
05:30 AM 55.8°F13.2°C 38.4°F3.6°C 52% 4.8 mph NNW7.7 kmh NNW 10.7 mph17.2 kmh 30.21 in1023.0 mb 0.00 in0.0 mm 0.00 in0.0 mm 0.00 in0.0 mm
05:35 AM 55.8°F13.2°C 38.4°F3.6°C 52% 5.4 mph NNW8.7 kmh NNW 13.0 mph20.9 kmh 30.21 in1023.0 mb 0.00 in0.0 mm 0.00 in0.0 mm 0.00 in0.0 mm
05:40 AM 55.9°F13.3°C 38.6°F3.7°C 52% 6.2 mph NNW10.0 kmh NNW 13.0 mph20.9 kmh 30.21 in1023.0 mb 0.00 in0.0 mm 0.00 in0.0 mm 0.00 in0.0 mm
05:45 AM 55.8°F13.2°C 38.9°F3.8°C 53% 5.6 mph NNW9.0 kmh NNW 12.1 mph19.5 kmh 30.21 in1023.0 mb 0.00 in0.0 mm 0.00 in0.0 mm 0.00 in0.0 mm
05:50 AM 55.8°F13.2°C 38.9°F3.8°C 53% 5.8 mph N9.3 kmh N 12.1 mph19.5 kmh 30.21 in1023.0 mb 0.00 in0.0 mm 0.00 in0.0 mm 0.00 in0.0 mm
05:55 AM 55.8°F13.2°C 38.4°F3.6°C 52% 6.6 mph N10.6 kmh N 15.9 mph25.6 kmh 30.21 in1023.0 mb 0.00 in0.0 mm 0.00 in0.0 mm 0.00 in0.0 mm
06:00 AM 55.8°F13.2°C 38.9°F3.8°C 53% 6.1 mph N9.8 kmh N 15.9 mph25.6 kmh 30.21 in1023.0 mb 0.00 in0.0 mm 0.00 in0.0 mm 0.00 in0.0 mm
06:05 AM 55.6°F13.1°C 38.7°F3.7°C 53% 5.3 mph NNW8.5 kmh NNW 13.0 mph20.9 kmh 30.21 in1023.0 mb 0.00 in0.0 mm 0.00 in0.0 mm 0.00 in0.0 mm
06:10 AM 55.6°F13.1°C 38.7°F3.7°C 53% 5.6 mph N9.0 kmh N 13.6 mph21.9 kmh 30.21 in1023.0 mb 0.00 in0.0 mm 0.00 in0.0 mm 0.00 in0.0 mm
06:15 AM 55.6°F13.1°C 38.7°F3.7°C 53% 5.5 mph N8.9 kmh N 13.6 mph21.9 kmh 30.22 in1023.4 mb 0.00 in0.0 mm 0.00 in0.0 mm 0.00 in0.0 mm
06:20 AM 55.4°F13.0°C 38.6°F3.7°C 53% 5.2 mph NNW8.4 kmh NNW 13.0 mph20.9 kmh 30.21 in1023.0 mb 0.00 in0.0 mm 0.00 in0.0 mm 0.00 in0.0 mm
06:25 AM 55.6°F13.1°C 38.7°F3.7°C 53% 5.6 mph NNW9.0 kmh NNW 12.1 mph19.5 kmh 30.22 in1023.4 mb 0.00 in0.0 mm 0.00 in0.0 mm 0.00 in0.0 mm
06:30 AM 55.4°F13.0°C 38.6°F3.7°C 53% 5.6 mph NNW9.0 kmh NNW 10.7 mph17.2 kmh 30.22 in1023.4 mb 0.00 in0.0 mm 0.00 in0.0 mm 0.00 in0.0 mm
06:35 AM 55.4°F13.0°C 38.6°F3.7°C 53% 6.2 mph NW10.0 kmh NW 17.4 mph28.0 kmh 30.22 in1023.4 mb 0.00 in0.0 mm 0.00 in0.0 mm 0.00 in0.0 mm
06:40 AM 55.4°F13.0°C 39.0°F3.9°C 54% 6.2 mph NW10.0 kmh NW 17.4 mph28.0 kmh 30.22 in1023.4 mb 0.00 in0.0 mm 0.00 in0.0 mm 0.00 in0.0 mm
06:45 AM 55.4°F13.0°C 39.5°F4.2°C 55% 4.8 mph NNW7.7 kmh NNW 12.1 mph19.5 kmh 30.22 in1023.4 mb 0.00 in0.0 mm 0.00 in0.0 mm 0.00 in0.0 mm
06:50 AM 55.4°F13.0°C 39.5°F4.2°C 55% 4.7 mph NNW7.6 kmh NNW 13.0 mph20.9 kmh 30.22 in1023.4 mb 0.00 in0.0 mm 0.00 in0.0 mm 0.00 in0.0 mm
06:55 AM 55.2°F12.9°C 39.3°F4.1°C 55% 6.5 mph NNW10.5 kmh NNW 17.4 mph28.0 kmh 30.22 in1023.4 mb 0.00 in0.0 mm 0.00 in0.0 mm 0.00 in0.0 mm
07:00 AM 55.2°F12.9°C 39.8°F4.3°C 56% 6.9 mph NNW11.1 kmh NNW 17.4 mph28.0 kmh 30.22 in1023.4 mb 0.00 in0.0 mm 0.00 in0.0 mm 0.00 in0.0 mm
07:05 AM 55.2°F12.9°C 39.8°F4.3°C 56% 6.1 mph NNW9.8 kmh NNW 12.1 mph19.5 kmh 30.23 in1023.7 mb 0.00 in0.0 mm 0.00 in0.0 mm 0.00 in0.0 mm
07:10 AM 55.2°F12.9°C 39.3°F4.1°C 55% 6.5 mph NNW10.5 kmh NNW 14.5 mph23.3 kmh 30.23 in1023.7 mb 0.00 in0.0 mm 0.00 in0.0 mm 0.00 in0.0 mm
07:15 AM 55.2°F12.9°C 39.3°F4.1°C 55% 7.5 mph NNW12.1 kmh NNW 14.5 mph23.3 kmh 30.22 in1023.4 mb 0.00 in0.0 mm 0.00 in0.0 mm 0.00 in0.0 mm
07:20 AM 55.2°F12.9°C 39.3°F4.1°C 55% 6.7 mph N10.8 kmh N 14.5 mph23.3 kmh 30.23 in1023.7 mb 0.00 in0.0 mm 0.00 in0.0 mm 0.00 in0.0 mm
07:25 AM 55.2°F12.9°C 39.3°F4.1°C 55% 5.9 mph NNW9.5 kmh NNW 12.1 mph19.5 kmh 30.23 in1023.7 mb 0.00 in0.0 mm 0.00 in0.0 mm 0.00 in0.0 mm
07:30 AM 55.2°F12.9°C 39.3°F4.1°C 55% 6.5 mph N10.5 kmh N 12.1 mph19.5 kmh 30.23 in1023.7 mb 0.00 in0.0 mm 0.00 in0.0 mm 0.00 in0.0 mm
07:35 AM 55.2°F12.9°C 39.3°F4.1°C 55% 6.9 mph NNW11.1 kmh NNW 15.9 mph25.6 kmh 30.24 in1024.0 mb 0.00 in0.0 mm 0.00 in0.0 mm 0.00 in0.0 mm
07:40 AM 55.2°F12.9°C 39.3°F4.1°C 55% 7.0 mph NW11.3 kmh NW 15.9 mph25.6 kmh 30.24 in1024.0 mb 0.00 in0.0 mm 0.00 in0.0 mm 0.00 in0.0 mm
07:45 AM 55.2°F12.9°C 39.8°F4.3°C 56% 6.7 mph N10.8 kmh N 13.0 mph20.9 kmh 30.24 in1024.0 mb 0.00 in0.0 mm 0.00 in0.0 mm 0.00 in0.0 mm
07:50 AM 55.2°F12.9°C 40.3°F4.6°C 57% 6.2 mph N10.0 kmh N 13.6 mph21.9 kmh 30.24 in1024.0 mb 0.00 in0.0 mm 0.00 in0.0 mm 0.00 in0.0 mm
07:55 AM 55.2°F12.9°C 40.3°F4.6°C 57% 6.1 mph NNW9.8 kmh NNW 13.6 mph21.9 kmh 30.24 in1024.0 mb 0.00 in0.0 mm 0.00 in0.0 mm 0.00 in0.0 mm
08:00 AM 55.2°F12.9°C 40.3°F4.6°C 57% 5.8 mph N9.3 kmh N 12.1 mph19.5 kmh 30.24 in1024.0 mb 0.00 in0.0 mm 0.00 in0.0 mm 0.00 in0.0 mm
08:05 AM 55.4°F13.0°C 40.4°F4.7°C 57% 5.2 mph N8.4 kmh N 11.4 mph18.3 kmh 30.25 in1024.4 mb 0.00 in0.0 mm 0.00 in0.0 mm 0.00 in0.0 mm
08:10 AM 55.4°F13.0°C 40.4°F4.7°C 57% 5.6 mph NNW9.0 kmh NNW 12.1 mph19.5 kmh 30.25 in1024.4 mb 0.00 in0.0 mm 0.00 in0.0 mm 0.00 in0.0 mm
08:15 AM 55.6°F13.1°C 40.6°F4.8°C 57% 6.1 mph N9.8 kmh N 12.1 mph19.5 kmh 30.25 in1024.4 mb 0.00 in0.0 mm 0.00 in0.0 mm 0.00 in0.0 mm
08:20 AM 55.6°F13.1°C 41.0°F5.0°C 58% 5.9 mph N9.5 kmh N 11.4 mph18.3 kmh 30.25 in1024.4 mb 0.00 in0.0 mm 0.00 in0.0 mm 0.00 in0.0 mm
08:25 AM 55.9°F13.3°C 41.4°F5.2°C 58% 5.5 mph N8.9 kmh N 11.4 mph18.3 kmh 30.25 in1024.4 mb 0.00 in0.0 mm 0.00 in0.0 mm 0.00 in0.0 mm
08:30 AM 55.8°F13.2°C 41.2°F5.1°C 58% 5.2 mph N8.4 kmh N 12.1 mph19.5 kmh 30.25 in1024.4 mb 0.00 in0.0 mm 0.00 in0.0 mm 0.00 in0.0 mm
08:35 AM 55.9°F13.3°C 41.4°F5.2°C 58% 5.6 mph N9.0 kmh N 12.1 mph19.5 kmh 30.25 in1024.4 mb 0.00 in0.0 mm 0.00 in0.0 mm 0.00 in0.0 mm
08:40 AM 56.1°F13.4°C 42.0°F5.6°C 59% 4.7 mph N7.6 kmh N 12.1 mph19.5 kmh 30.26 in1024.7 mb 0.00 in0.0 mm 0.00 in0.0 mm 0.00 in0.0 mm
08:45 AM 56.1°F13.4°C 41.6°F5.3°C 58% 4.3 mph NNW6.9 kmh NNW 10.7 mph17.2 kmh 30.26 in1024.7 mb 0.00 in0.0 mm 0.00 in0.0 mm 0.00 in0.0 mm
08:50 AM 56.1°F13.4°C 42.0°F5.6°C 59% 5.2 mph NNW8.4 kmh NNW 11.4 mph18.3 kmh 30.26 in1024.7 mb 0.00 in0.0 mm 0.00 in0.0 mm 0.00 in0.0 mm
08:55 AM 56.1°F13.4°C 42.0°F5.6°C 59% 5.5 mph NNW8.9 kmh NNW 14.5 mph23.3 kmh 30.26 in1024.7 mb 0.00 in0.0 mm 0.00 in0.0 mm 0.00 in0.0 mm
09:00 AM 56.3°F13.5°C 42.2°F5.7°C 59% 5.6 mph NNW9.0 kmh NNW 14.5 mph23.3 kmh 30.26 in1024.7 mb 0.00 in0.0 mm 0.00 in0.0 mm 0.00 in0.0 mm
09:05 AM 56.3°F13.5°C 41.7°F5.4°C 58% 5.1 mph N8.2 kmh N 11.4 mph18.3 kmh 30.25 in1024.4 mb 0.00 in0.0 mm 0.00 in0.0 mm 0.00 in0.0 mm
09:10 AM 56.3°F13.5°C 41.7°F5.4°C 58% 4.9 mph N7.9 kmh N 11.4 mph18.3 kmh 30.26 in1024.7 mb 0.00 in0.0 mm 0.00 in0.0 mm 0.00 in0.0 mm
09:15 AM 56.5°F13.6°C 41.4°F5.2°C 57% 6.0 mph N9.7 kmh N 12.1 mph19.5 kmh 30.26 in1024.7 mb 0.00 in0.0 mm 0.00 in0.0 mm 0.00 in0.0 mm
09:20 AM 56.5°F13.6°C 41.4°F5.2°C 57% 6.4 mph N10.3 kmh N 13.0 mph20.9 kmh 30.26 in1024.7 mb 0.00 in0.0 mm 0.00 in0.0 mm 0.00 in0.0 mm
09:25 AM 56.5°F13.6°C 41.0°F5.0°C 56% 6.6 mph NNW10.6 kmh NNW 15.2 mph24.5 kmh 30.26 in1024.7 mb 0.00 in0.0 mm 0.00 in0.0 mm 0.00 in0.0 mm
09:30 AM 56.7°F13.7°C 41.2°F5.1°C 56% 7.6 mph NNW12.2 kmh NNW 15.2 mph24.5 kmh 30.26 in1024.7 mb 0.00 in0.0 mm 0.00 in0.0 mm 0.00 in0.0 mm
09:35 AM 56.7°F13.7°C 41.2°F5.1°C 56% 7.2 mph NNW11.6 kmh NNW 13.0 mph20.9 kmh 30.26 in1024.7 mb 0.00 in0.0 mm 0.00 in0.0 mm 0.00 in0.0 mm
09:40 AM 56.8°F13.8°C 41.3°F5.2°C 56% 6.3 mph NW10.1 kmh NW 12.1 mph19.5 kmh 30.26 in1024.7 mb 0.00 in0.0 mm 0.00 in0.0 mm 0.00 in0.0 mm
09:45 AM 57.0°F13.9°C 41.5°F5.3°C 56% 5.9 mph NW9.5 kmh NW 14.5 mph23.3 kmh 30.26 in1024.7 mb 0.00 in0.0 mm 0.00 in0.0 mm 0.00 in0.0 mm
09:50 AM 57.2°F14.0°C 41.7°F5.4°C 56% 5.1 mph NNW8.2 kmh NNW 14.5 mph23.3 kmh 30.26 in1024.7 mb 0.00 in0.0 mm 0.00 in0.0 mm 0.00 in0.0 mm
09:55 AM 57.4°F14.1°C 41.4°F5.2°C 55% 6.4 mph N10.3 kmh N 15.9 mph25.6 kmh 30.26 in1024.7 mb 0.00 in0.0 mm 0.00 in0.0 mm 0.00 in0.0 mm
10:00 AM 57.6°F14.2°C 42.0°F5.6°C 56% 6.8 mph NNW10.9 kmh NNW 15.9 mph25.6 kmh 30.26 in1024.7 mb 0.00 in0.0 mm 0.00 in0.0 mm 0.00 in0.0 mm
10:05 AM 57.7°F14.3°C 41.2°F5.1°C 54% 6.2 mph NW10.0 kmh NW 15.2 mph24.5 kmh 30.26 in1024.7 mb 0.00 in0.0 mm 0.00 in0.0 mm 0.00 in0.0 mm
10:10 AM 57.9°F14.4°C 41.4°F5.2°C 54% 7.1 mph NNW11.4 kmh NNW 15.2 mph24.5 kmh 30.27 in1025.1 mb 0.00 in0.0 mm 0.00 in0.0 mm 0.00 in0.0 mm
10:15 AM 57.7°F14.3°C 41.2°F5.1°C 54% 7.9 mph N12.7 kmh N 14.5 mph23.3 kmh 30.26 in1024.7 mb 0.00 in0.0 mm 0.00 in0.0 mm 0.00 in0.0 mm
10:20 AM 57.9°F14.4°C 41.9°F5.5°C 55% 7.5 mph N12.1 kmh N 13.6 mph21.9 kmh 30.27 in1025.1 mb 0.00 in0.0 mm 0.00 in0.0 mm 0.00 in0.0 mm
10:25 AM 57.9°F14.4°C 41.4°F5.2°C 54% 7.5 mph N12.1 kmh N 15.9 mph25.6 kmh 30.27 in1025.1 mb 0.00 in0.0 mm 0.00 in0.0 mm 0.00 in0.0 mm
10:30 AM 57.9°F14.4°C 41.9°F5.5°C 55% 8.2 mph NNW13.2 kmh NNW 15.9 mph25.6 kmh 30.27 in1025.1 mb 0.00 in0.0 mm 0.00 in0.0 mm 0.00 in0.0 mm
10:35 AM 57.9°F14.4°C 41.4°F5.2°C 54% 8.5 mph NW13.7 kmh NW 15.9 mph25.6 kmh 30.27 in1025.1 mb 0.00 in0.0 mm 0.00 in0.0 mm 0.00 in0.0 mm
10:40 AM 58.3°F14.6°C 42.2°F5.7°C 55% 8.1 mph NNW13.0 kmh NNW 15.2 mph24.5 kmh 30.27 in1025.1 mb 0.00 in0.0 mm 0.00 in0.0 mm 0.00 in0.0 mm
10:45 AM 58.5°F14.7°C 41.9°F5.5°C 54% 7.9 mph NNW12.7 kmh NNW 15.2 mph24.5 kmh 30.27 in1025.1 mb 0.00 in0.0 mm 0.00 in0.0 mm 0.00 in0.0 mm
10:50 AM 58.5°F14.7°C 41.4°F5.2°C 53% 8.4 mph NNW13.5 kmh NNW 16.8 mph27.0 kmh 30.27 in1025.1 mb 0.00 in0.0 mm 0.00 in0.0 mm 0.00 in0.0 mm
10:55 AM 58.5°F14.7°C 41.9°F5.5°C 54% 8.2 mph NNW13.2 kmh NNW 16.8 mph27.0 kmh 30.27 in1025.1 mb 0.00 in0.0 mm 0.00 in0.0 mm 0.00 in0.0 mm
11:00 AM 58.5°F14.7°C 41.9°F5.5°C 54% 8.1 mph N13.0 kmh N 15.9 mph25.6 kmh 30.27 in1025.1 mb 0.00 in0.0 mm 0.00 in0.0 mm 0.00 in0.0 mm
11:05 AM 58.5°F14.7°C 41.4°F5.2°C 53% 8.2 mph N13.2 kmh N 15.9 mph25.6 kmh 30.27 in1025.1 mb 0.00 in0.0 mm 0.00 in0.0 mm 0.00 in0.0 mm
11:10 AM 58.5°F14.7°C 40.9°F4.9°C 52% 8.8 mph N14.2 kmh N 15.9 mph25.6 kmh 30.27 in1025.1 mb 0.00 in0.0 mm 0.00 in0.0 mm 0.00 in0.0 mm
11:15 AM 58.6°F14.8°C 41.1°F5.1°C 52% 8.6 mph NNW13.8 kmh NNW 15.2 mph24.5 kmh 30.27 in1025.1 mb 0.00 in0.0 mm 0.00 in0.0 mm 0.00 in0.0 mm
11:20 AM 59.2°F15.1°C 40.6°F4.8°C 50% 7.2 mph NW11.6 kmh NW 15.2 mph24.5 kmh 30.27 in1025.1 mb 0.00 in0.0 mm 0.00 in0.0 mm 0.00 in0.0 mm
11:25 AM 59.2°F15.1°C 41.1°F5.1°C 51% 6.8 mph NW10.9 kmh NW 15.2 mph24.5 kmh 30.26 in1024.7 mb 0.00 in0.0 mm 0.00 in0.0 mm 0.00 in0.0 mm
11:30 AM 59.2°F15.1°C 40.6°F4.8°C 50% 8.1 mph NNW13.0 kmh NNW 15.2 mph24.5 kmh 30.26 in1024.7 mb 0.00 in0.0 mm 0.00 in0.0 mm 0.00 in0.0 mm
11:35 AM 59.4°F15.2°C 40.7°F4.8°C 50% 8.0 mph NW12.9 kmh NW 15.9 mph25.6 kmh 30.26 in1024.7 mb 0.00 in0.0 mm 0.00 in0.0 mm 0.00 in0.0 mm
11:40 AM 59.4°F15.2°C 40.2°F4.6°C 49% 7.4 mph NW11.9 kmh NW 15.9 mph25.6 kmh 30.26 in1024.7 mb 0.00 in0.0 mm 0.00 in0.0 mm 0.00 in0.0 mm
11:45 AM 59.2°F15.1°C 40.6°F4.8°C 50% 8.1 mph NNW13.0 kmh NNW 15.2 mph24.5 kmh 30.26 in1024.7 mb 0.00 in0.0 mm 0.00 in0.0 mm 0.00 in0.0 mm
11:50 AM 59.4°F15.2°C 40.7°F4.8°C 50% 7.7 mph NNW12.4 kmh NNW 13.0 mph20.9 kmh 30.26 in1024.7 mb 0.00 in0.0 mm 0.00 in0.0 mm 0.00 in0.0 mm
11:55 AM 59.7°F15.4°C 40.5°F4.7°C 49% 7.0 mph NNW11.3 kmh NNW 13.0 mph20.9 kmh 30.26 in1024.7 mb 0.00 in0.0 mm 0.00 in0.0 mm 0.00 in0.0 mm
12:00 PM 59.9°F15.5°C 40.2°F4.6°C 48% 6.7 mph NNW10.8 kmh NNW 13.6 mph21.9 kmh 30.26 in1024.7 mb 0.00 in0.0 mm 0.00 in0.0 mm 0.00 in0.0 mm
12:05 PM 60.4°F15.8°C 41.2°F5.1°C 49% 6.7 mph N10.8 kmh N 13.6 mph21.9 kmh 30.25 in1024.4 mb 0.00 in0.0 mm 0.00 in0.0 mm 0.00 in0.0 mm
12:10 PM 61.0°F16.1°C 40.1°F4.5°C 46% 6.8 mph N10.9 kmh N 13.0 mph20.9 kmh 30.25 in1024.4 mb 0.00 in0.0 mm 0.00 in0.0 mm 0.00 in0.0 mm
12:15 PM 61.3°F16.3°C 41.0°F5.0°C 47% 6.4 mph N10.3 kmh N 15.9 mph25.6 kmh 30.25 in1024.4 mb 0.00 in0.0 mm 0.00 in0.0 mm 0.00 in0.0 mm
12:20 PM 61.3°F16.3°C 39.8°F4.3°C 45% 6.7 mph N10.8 kmh N 15.9 mph25.6 kmh 30.25 in1024.4 mb 0.00 in0.0 mm 0.00 in0.0 mm 0.00 in0.0 mm
12:25 PM 60.6°F15.9°C 40.3°F4.6°C 47% 6.5 mph N10.5 kmh N 13.0 mph20.9 kmh 30.25 in1024.4 mb 0.00 in0.0 mm 0.00 in0.0 mm 0.00 in0.0 mm
12:30 PM 61.0°F16.1°C 40.1°F4.5°C 46% 5.7 mph N9.2 kmh N 13.0 mph20.9 kmh 30.25 in1024.4 mb 0.00 in0.0 mm 0.00 in0.0 mm 0.00 in0.0 mm
12:35 PM 61.5°F16.4°C 40.6°F4.8°C 46% 5.4 mph NNW8.7 kmh NNW 13.0 mph20.9 kmh 30.24 in1024.0 mb 0.00 in0.0 mm 0.00 in0.0 mm 0.00 in0.0 mm
12:40 PM 61.3°F16.3°C 39.8°F4.3°C 45% 5.8 mph N9.3 kmh N 13.6 mph21.9 kmh 30.25 in1024.4 mb 0.00 in0.0 mm 0.00 in0.0 mm 0.00 in0.0 mm
12:45 PM 61.3°F16.3°C 39.3°F4.1°C 44% 6.8 mph N10.9 kmh N 13.6 mph21.9 kmh 30.25 in1024.4 mb 0.00 in0.0 mm 0.00 in0.0 mm 0.00 in0.0 mm
12:50 PM 60.8°F16.0°C 39.3°F4.1°C 45% 7.0 mph NNW11.3 kmh NNW 13.6 mph21.9 kmh 30.25 in1024.4 mb 0.00 in0.0 mm 0.00 in0.0 mm 0.00 in0.0 mm
12:55 PM 60.3°F15.7°C 39.4°F4.1°C 46% 7.2 mph N11.6 kmh N 13.6 mph21.9 kmh 30.24 in1024.0 mb 0.00 in0.0 mm 0.00 in0.0 mm 0.00 in0.0 mm
01:00 PM 60.8°F16.0°C 39.3°F4.1°C 45% 6.1 mph N9.8 kmh N 13.6 mph21.9 kmh 30.24 in1024.0 mb 0.00 in0.0 mm 0.00 in0.0 mm 0.00 in0.0 mm
01:05 PM 60.6°F15.9°C 39.7°F4.3°C 46% 5.5 mph N8.9 kmh N 13.6 mph21.9 kmh 30.24 in1024.0 mb 0.00 in0.0 mm 0.00 in0.0 mm 0.00 in0.0 mm
01:10 PM 61.2°F16.2°C 40.2°F4.6°C 46% 5.4 mph N8.7 kmh N 13.6 mph21.9 kmh 30.24 in1024.0 mb 0.00 in0.0 mm 0.00 in0.0 mm 0.00 in0.0 mm
01:15 PM 61.5°F16.4°C 40.0°F4.4°C 45% 5.4 mph NNE8.7 kmh NNE 13.0 mph20.9 kmh 30.24 in1024.0 mb 0.00 in0.0 mm 0.00 in0.0 mm 0.00 in0.0 mm
01:20 PM 61.7°F16.5°C 39.6°F4.2°C 44% 6.1 mph N9.8 kmh N 13.0 mph20.9 kmh 30.23 in1023.7 mb 0.00 in0.0 mm 0.00 in0.0 mm 0.00 in0.0 mm
01:25 PM 60.8°F16.0°C 39.3°F4.1°C 45% 6.9 mph N11.1 kmh N 13.6 mph21.9 kmh 30.23 in1023.7 mb 0.00 in0.0 mm 0.00 in0.0 mm 0.00 in0.0 mm
01:30 PM 60.6°F15.9°C 39.2°F4.0°C 45% 7.0 mph NNW11.3 kmh NNW 13.6 mph21.9 kmh 30.24 in1024.0 mb 0.00 in0.0 mm 0.00 in0.0 mm 0.00 in0.0 mm
01:35 PM 60.6°F15.9°C 40.3°F4.6°C 47% 5.6 mph NNW9.0 kmh NNW 13.6 mph21.9 kmh 30.23 in1023.7 mb 0.00 in0.0 mm 0.00 in0.0 mm 0.00 in0.0 mm
01:40 PM 60.1°F15.6°C 39.2°F4.0°C 46% 6.1 mph NNE9.8 kmh NNE 15.9 mph25.6 kmh 30.23 in1023.7 mb 0.00 in0.0 mm 0.00 in0.0 mm 0.00 in0.0 mm
01:45 PM 60.1°F15.6°C 39.8°F4.3°C 47% 7.0 mph NE11.3 kmh NE 15.9 mph25.6 kmh 30.23 in1023.7 mb 0.00 in0.0 mm 0.00 in0.0 mm 0.00 in0.0 mm
01:50 PM 60.3°F15.7°C 40.0°F4.4°C 47% 6.1 mph NNE9.8 kmh NNE 13.0 mph20.9 kmh 30.23 in1023.7 mb 0.00 in0.0 mm 0.00 in0.0 mm 0.00 in0.0 mm
01:55 PM 60.3°F15.7°C 40.0°F4.4°C 47% 5.1 mph N8.2 kmh N 12.1 mph19.5 kmh 30.23 in1023.7 mb 0.00 in0.0 mm 0.00 in0.0 mm 0.00 in0.0 mm
02:00 PM 59.9°F15.5°C 39.6°F4.2°C 47% 5.4 mph N8.7 kmh N 12.1 mph19.5 kmh 30.23 in1023.7 mb 0.00 in0.0 mm 0.00 in0.0 mm 0.00 in0.0 mm
02:05 PM 59.7°F15.4°C 40.0°F4.4°C 48% 5.3 mph N8.5 kmh N 12.1 mph19.5 kmh 30.23 in1023.7 mb 0.00 in0.0 mm 0.00 in0.0 mm 0.00 in0.0 mm
02:10 PM 59.5°F15.3°C 40.4°F4.7°C 49% 5.2 mph NE8.4 kmh NE 13.6 mph21.9 kmh 30.23 in1023.7 mb 0.00 in0.0 mm 0.00 in0.0 mm 0.00 in0.0 mm
02:15 PM 59.7°F15.4°C 41.1°F5.1°C 50% 5.1 mph NE8.2 kmh NE 13.6 mph21.9 kmh 30.23 in1023.7 mb 0.00 in0.0 mm 0.00 in0.0 mm 0.00 in0.0 mm
02:20 PM 59.7°F15.4°C 40.0°F4.4°C 48% 4.8 mph NE7.7 kmh NE 12.1 mph19.5 kmh 30.23 in1023.7 mb 0.00 in0.0 mm 0.00 in0.0 mm 0.00 in0.0 mm
02:25 PM 59.4°F15.2°C 40.2°F4.6°C 49% 5.5 mph NE8.9 kmh NE 12.1 mph19.5 kmh 30.23 in1023.7 mb 0.00 in0.0 mm 0.00 in0.0 mm 0.00 in0.0 mm
02:30 PM 59.5°F15.3°C 40.9°F4.9°C 50% 6.5 mph N10.5 kmh N 11.4 mph18.3 kmh 30.22 in1023.4 mb 0.00 in0.0 mm 0.00 in0.0 mm 0.00 in0.0 mm
02:35 PM 59.5°F15.3°C 40.4°F4.7°C 49% 6.5 mph NNW10.5 kmh NNW 11.4 mph18.3 kmh 30.22 in1023.4 mb 0.00 in0.0 mm 0.00 in0.0 mm 0.00 in0.0 mm
02:40 PM 59.4°F15.2°C 40.2°F4.6°C 49% 6.4 mph N10.3 kmh N 13.6 mph21.9 kmh 30.22 in1023.4 mb 0.00 in0.0 mm 0.00 in0.0 mm 0.00 in0.0 mm
02:45 PM 59.2°F15.1°C 40.6°F4.8°C 50% 6.6 mph N10.6 kmh N 14.5 mph23.3 kmh 30.22 in1023.4 mb 0.00 in0.0 mm 0.00 in0.0 mm 0.00 in0.0 mm
02:50 PM 59.4°F15.2°C 40.7°F4.8°C 50% 5.1 mph NNW8.2 kmh NNW 14.5 mph23.3 kmh 30.22 in1023.4 mb 0.00 in0.0 mm 0.00 in0.0 mm 0.00 in0.0 mm
02:55 PM 59.4°F15.2°C 40.2°F4.6°C 49% 4.8 mph N7.7 kmh N 11.4 mph18.3 kmh 30.22 in1023.4 mb 0.00 in0.0 mm 0.00 in0.0 mm 0.00 in0.0 mm
03:00 PM 59.5°F15.3°C 40.9°F4.9°C 50% 5.8 mph N9.3 kmh N 12.1 mph19.5 kmh 30.22 in1023.4 mb 0.00 in0.0 mm 0.00 in0.0 mm 0.00 in0.0 mm
03:05 PM 59.7°F15.4°C 40.5°F4.7°C 49% 6.0 mph N9.7 kmh N 13.0 mph20.9 kmh 30.22 in1023.4 mb 0.00 in0.0 mm 0.00 in0.0 mm 0.00 in0.0 mm
03:10 PM 59.7°F15.4°C 40.5°F4.7°C 49% 5.9 mph NW9.5 kmh NW 13.0 mph20.9 kmh 30.22 in1023.4 mb 0.00 in0.0 mm 0.00 in0.0 mm 0.00 in0.0 mm
03:15 PM 59.5°F15.3°C 40.4°F4.7°C 49% 6.8 mph NW10.9 kmh NW 13.0 mph20.9 kmh 30.22 in1023.4 mb 0.00 in0.0 mm 0.00 in0.0 mm 0.00 in0.0 mm
03:20 PM 59.4°F15.2°C 40.2°F4.6°C 49% 6.6 mph NNW10.6 kmh NNW 13.0 mph20.9 kmh 30.22 in1023.4 mb 0.00 in0.0 mm 0.00 in0.0 mm 0.00 in0.0 mm
03:25 PM 59.4°F15.2°C 40.7°F4.8°C 50% 5.6 mph N9.0 kmh N 13.0 mph20.9 kmh 30.22 in1023.4 mb 0.00 in0.0 mm 0.00 in0.0 mm 0.00 in0.0 mm
03:30 PM 59.4°F15.2°C 40.7°F4.8°C 50% 5.8 mph N9.3 kmh N 13.0 mph20.9 kmh 30.22 in1023.4 mb 0.00 in0.0 mm 0.00 in0.0 mm 0.00 in0.0 mm
03:35 PM 59.2°F15.1°C 41.1°F5.1°C 51% 6.6 mph N10.6 kmh N 13.0 mph20.9 kmh 30.22 in1023.4 mb 0.00 in0.0 mm 0.00 in0.0 mm 0.00 in0.0 mm
03:40 PM 59.0°F15.0°C 40.9°F4.9°C 51% 6.5 mph NNW10.5 kmh NNW 13.0 mph20.9 kmh 30.22 in1023.4 mb 0.00 in0.0 mm 0.00 in0.0 mm 0.00 in0.0 mm
03:45 PM 58.8°F14.9°C 41.2°F5.1°C 52% 5.7 mph NNW9.2 kmh NNW 12.1 mph19.5 kmh 30.22 in1023.4 mb 0.00 in0.0 mm 0.00 in0.0 mm 0.00 in0.0 mm
03:50 PM 58.6°F14.8°C 41.6°F5.3°C 53% 5.6 mph N9.0 kmh N 12.1 mph19.5 kmh 30.22 in1023.4 mb 0.00 in0.0 mm 0.00 in0.0 mm 0.00 in0.0 mm
03:55 PM 58.6°F14.8°C 41.1°F5.1°C 52% 4.9 mph N7.9 kmh N 10.7 mph17.2 kmh 30.22 in1023.4 mb 0.00 in0.0 mm 0.00 in0.0 mm 0.00 in0.0 mm
04:00 PM 58.5°F14.7°C 40.9°F4.9°C 52% 4.6 mph NW7.4 kmh NW 10.7 mph17.2 kmh 30.22 in1023.4 mb 0.00 in0.0 mm 0.00 in0.0 mm 0.00 in0.0 mm
04:05 PM 58.5°F14.7°C 41.4°F5.2°C 53% 4.0 mph N6.4 kmh N 9.2 mph14.8 kmh 30.22 in1023.4 mb 0.00 in0.0 mm 0.00 in0.0 mm 0.00 in0.0 mm
04:10 PM 58.3°F14.6°C 41.2°F5.1°C 53% 4.2 mph N6.8 kmh N 9.2 mph14.8 kmh 30.22 in1023.4 mb 0.00 in0.0 mm 0.00 in0.0 mm 0.00 in0.0 mm
04:15 PM 58.1°F14.5°C 41.1°F5.1°C 53% 5.2 mph N8.4 kmh N 9.2 mph14.8 kmh 30.22 in1023.4 mb 0.00 in0.0 mm 0.00 in0.0 mm 0.00 in0.0 mm
04:20 PM 57.7°F14.3°C 41.2°F5.1°C 54% 4.7 mph NNW7.6 kmh NNW 9.2 mph14.8 kmh 30.22 in1023.4 mb 0.00 in0.0 mm 0.00 in0.0 mm 0.00 in0.0 mm
04:25 PM 57.4°F14.1°C 40.9°F4.9°C 54% 4.5 mph NW7.2 kmh NW 9.2 mph14.8 kmh 30.22 in1023.4 mb 0.00 in0.0 mm 0.00 in0.0 mm 0.00 in0.0 mm
04:30 PM 57.2°F14.0°C 41.2°F5.1°C 55% 4.2 mph NW6.8 kmh NW 9.2 mph14.8 kmh 30.22 in1023.4 mb 0.00 in0.0 mm 0.00 in0.0 mm 0.00 in0.0 mm
04:35 PM 57.0°F13.9°C 41.5°F5.3°C 56% 4.1 mph NNW6.6 kmh NNW 9.8 mph15.8 kmh 30.22 in1023.4 mb 0.00 in0.0 mm 0.00 in0.0 mm 0.00 in0.0 mm
04:40 PM 56.7°F13.7°C 41.2°F5.1°C 56% 4.2 mph NNW6.8 kmh NNW 9.8 mph15.8 kmh 30.22 in1023.4 mb 0.00 in0.0 mm 0.00 in0.0 mm 0.00 in0.0 mm
04:45 PM 56.5°F13.6°C 41.0°F5.0°C 56% 3.7 mph N6.0 kmh N 8.3 mph13.4 kmh 30.22 in1023.4 mb 0.00 in0.0 mm 0.00 in0.0 mm 0.00 in0.0 mm
04:50 PM 56.1°F13.4°C 41.1°F5.1°C 57% 3.1 mph N5.0 kmh N 6.9 mph11.1 kmh 30.22 in1023.4 mb 0.00 in0.0 mm 0.00 in0.0 mm 0.00 in0.0 mm
04:55 PM 55.9°F13.3°C 40.9°F4.9°C 57% 3.4 mph NNW5.5 kmh NNW 7.6 mph12.2 kmh 30.22 in1023.4 mb 0.00 in0.0 mm 0.00 in0.0 mm 0.00 in0.0 mm
05:00 PM 55.9°F13.3°C 40.9°F4.9°C 57% 3.7 mph NNW6.0 kmh NNW 7.6 mph12.2 kmh 30.22 in1023.4 mb 0.00 in0.0 mm 0.00 in0.0 mm 0.00 in0.0 mm
05:05 PM 55.6°F13.1°C 40.6°F4.8°C 57% 3.8 mph NNW6.1 kmh NNW 8.3 mph13.4 kmh 30.22 in1023.4 mb 0.00 in0.0 mm 0.00 in0.0 mm 0.00 in0.0 mm
05:10 PM 55.6°F13.1°C 40.6°F4.8°C 57% 3.8 mph N6.1 kmh N 8.3 mph13.4 kmh 30.22 in1023.4 mb 0.00 in0.0 mm 0.00 in0.0 mm 0.00 in0.0 mm
05:15 PM 55.6°F13.1°C 40.6°F4.8°C 57% 3.5 mph N5.6 kmh N 9.2 mph14.8 kmh 30.22 in1023.4 mb 0.00 in0.0 mm 0.00 in0.0 mm 0.00 in0.0 mm
05:20 PM 55.4°F13.0°C 40.4°F4.7°C 57% 3.4 mph N5.5 kmh N 9.2 mph14.8 kmh 30.22 in1023.4 mb 0.00 in0.0 mm 0.00 in0.0 mm 0.00 in0.0 mm
05:25 PM 55.4°F13.0°C 40.4°F4.7°C 57% 3.7 mph N6.0 kmh N 7.6 mph12.2 kmh 30.22 in1023.4 mb 0.00 in0.0 mm 0.00 in0.0 mm 0.00 in0.0 mm
05:30 PM 55.4°F13.0°C 40.4°F4.7°C 57% 3.4 mph N5.5 kmh N 6.9 mph11.1 kmh 30.22 in1023.4 mb 0.00 in0.0 mm 0.00 in0.0 mm 0.00 in0.0 mm
05:35 PM 55.4°F13.0°C 40.4°F4.7°C 57% 2.9 mph N4.7 kmh N 6.9 mph11.1 kmh 30.22 in1023.4 mb 0.00 in0.0 mm 0.00 in0.0 mm 0.00 in0.0 mm
05:40 PM 55.4°F13.0°C 40.9°F4.9°C 58% 2.9 mph N4.7 kmh N 6.9 mph11.1 kmh 30.22 in1023.4 mb 0.00 in0.0 mm 0.00 in0.0 mm 0.00 in0.0 mm
05:45 PM 55.2°F12.9°C 40.7°F4.8°C 58% 3.0 mph N4.8 kmh N 6.9 mph11.1 kmh 30.22 in1023.4 mb 0.00 in0.0 mm 0.00 in0.0 mm 0.00 in0.0 mm
05:50 PM 55.2°F12.9°C 40.7°F4.8°C 58% 3.1 mph N5.0 kmh N 6.9 mph11.1 kmh 30.23 in1023.7 mb 0.00 in0.0 mm 0.00 in0.0 mm 0.00 in0.0 mm
05:55 PM 55.2°F12.9°C 41.2°F5.1°C 59% 2.9 mph N4.7 kmh N 6.9 mph11.1 kmh 30.23 in1023.7 mb 0.00 in0.0 mm 0.00 in0.0 mm 0.00 in0.0 mm
06:00 PM 55.0°F12.8°C 41.0°F5.0°C 59% 2.2 mph N3.5 kmh N 5.4 mph8.7 kmh 30.23 in1023.7 mb 0.00 in0.0 mm 0.00 in0.0 mm 0.00 in0.0 mm
06:05 PM 55.0°F12.8°C 41.0°F5.0°C 59% 2.4 mph N3.9 kmh N 5.4 mph8.7 kmh 30.23 in1023.7 mb 0.00 in0.0 mm 0.00 in0.0 mm 0.00 in0.0 mm
06:10 PM 55.0°F12.8°C 41.4°F5.2°C 60% 2.8 mph N4.5 kmh N 5.4 mph8.7 kmh 30.23 in1023.7 mb 0.00 in0.0 mm 0.00 in0.0 mm 0.00 in0.0 mm
06:15 PM 55.0°F12.8°C 41.4°F5.2°C 60% 2.8 mph N4.5 kmh N 6.9 mph11.1 kmh 30.23 in1023.7 mb 0.00 in0.0 mm 0.00 in0.0 mm 0.00 in0.0 mm
06:20 PM 55.0°F12.8°C 41.4°F5.2°C 60% 3.1 mph N5.0 kmh N 6.9 mph11.1 kmh 30.23 in1023.7 mb 0.00 in0.0 mm 0.00 in0.0 mm 0.00 in0.0 mm
06:25 PM 54.9°F12.7°C 41.7°F5.4°C 61% 3.3 mph N5.3 kmh N 6.9 mph11.1 kmh 30.24 in1024.0 mb 0.00 in0.0 mm 0.00 in0.0 mm 0.00 in0.0 mm
06:30 PM 54.7°F12.6°C 41.5°F5.3°C 61% 3.3 mph N5.3 kmh N 6.0 mph9.7 kmh 30.24 in1024.0 mb 0.00 in0.0 mm 0.00 in0.0 mm 0.00 in0.0 mm
06:35 PM 54.7°F12.6°C 41.5°F5.3°C 61% 2.7 mph N4.3 kmh N 6.9 mph11.1 kmh 30.24 in1024.0 mb 0.00 in0.0 mm 0.00 in0.0 mm 0.00 in0.0 mm
06:40 PM 54.5°F12.5°C 41.8°F5.4°C 62% 2.5 mph N4.0 kmh N 6.9 mph11.1 kmh 30.24 in1024.0 mb 0.00 in0.0 mm 0.00 in0.0 mm 0.00 in0.0 mm
06:45 PM 54.5°F12.5°C 41.8°F5.4°C 62% 2.6 mph N4.2 kmh N 5.4 mph8.7 kmh 30.24 in1024.0 mb 0.00 in0.0 mm 0.00 in0.0 mm 0.00 in0.0 mm
06:50 PM 54.3°F12.4°C 42.0°F5.6°C 63% 2.4 mph N3.9 kmh N 5.4 mph8.7 kmh 30.24 in1024.0 mb 0.00 in0.0 mm 0.00 in0.0 mm 0.00 in0.0 mm
06:55 PM 54.1°F12.3°C 41.8°F5.4°C 63% 2.4 mph N3.9 kmh N 5.4 mph8.7 kmh 30.24 in1024.0 mb 0.00 in0.0 mm 0.00 in0.0 mm 0.00 in0.0 mm
07:00 PM 54.0°F12.2°C 42.1°F5.6°C 64% 2.5 mph N4.0 kmh N 4.5 mph7.2 kmh 30.24 in1024.0 mb 0.00 in0.0 mm 0.00 in0.0 mm 0.00 in0.0 mm
07:05 PM 53.8°F12.1°C 41.9°F5.5°C 64% 2.0 mph N3.2 kmh N 4.5 mph7.2 kmh 30.24 in1024.0 mb 0.00 in0.0 mm 0.00 in0.0 mm 0.00 in0.0 mm
07:10 PM 53.6°F12.0°C 42.1°F5.6°C 65% 1.4 mph NE2.3 kmh NE 4.5 mph7.2 kmh 30.24 in1024.0 mb 0.00 in0.0 mm 0.00 in0.0 mm 0.00 in0.0 mm
07:15 PM 53.6°F12.0°C 42.5°F5.8°C 66% 1.5 mph NNE2.4 kmh NNE 4.5 mph7.2 kmh 30.24 in1024.0 mb 0.00 in0.0 mm 0.00 in0.0 mm 0.00 in0.0 mm
07:20 PM 53.6°F12.0°C 42.9°F6.1°C 67% 1.9 mph N3.1 kmh N 4.5 mph7.2 kmh 30.24 in1024.0 mb 0.00 in0.0 mm 0.00 in0.0 mm 0.00 in0.0 mm
07:25 PM 53.6°F12.0°C 42.9°F6.1°C 67% 2.4 mph N3.9 kmh N 5.4 mph8.7 kmh 30.24 in1024.0 mb 0.00 in0.0 mm 0.00 in0.0 mm 0.00 in0.0 mm
07:30 PM 53.8°F12.1°C 43.1°F6.2°C 67% 2.6 mph N4.2 kmh N 5.4 mph8.7 kmh 30.24 in1024.0 mb 0.00 in0.0 mm 0.00 in0.0 mm 0.00 in0.0 mm
07:35 PM 54.0°F12.2°C 43.3°F6.3°C 67% 2.7 mph N4.3 kmh N 5.4 mph8.7 kmh 30.24 in1024.0 mb 0.00 in0.0 mm 0.00 in0.0 mm 0.00 in0.0 mm
07:40 PM 54.0°F12.2°C 43.3°F6.3°C 67% 2.6 mph NNE4.2 kmh NNE 6.0 mph9.7 kmh 30.24 in1024.0 mb 0.00 in0.0 mm 0.00 in0.0 mm 0.00 in0.0 mm
07:45 PM 54.0°F12.2°C 43.3°F6.3°C 67% 2.1 mph NNE3.4 kmh NNE 6.0 mph9.7 kmh 30.24 in1024.0 mb 0.00 in0.0 mm 0.00 in0.0 mm 0.00 in0.0 mm
07:50 PM 54.1°F12.3°C 43.4°F6.3°C 67% 1.6 mph N2.6 kmh N 3.8 mph6.1 kmh 30.24 in1024.0 mb 0.00 in0.0 mm 0.00 in0.0 mm 0.00 in0.0 mm
07:55 PM 54.1°F12.3°C 43.4°F6.3°C 67% 1.1 mph N1.8 kmh N 3.8 mph6.1 kmh 30.24 in1024.0 mb 0.00 in0.0 mm 0.00 in0.0 mm 0.00 in0.0 mm
08:00 PM 54.0°F12.2°C 43.3°F6.3°C 67% 0.6 mph NW1.0 kmh NW 3.8 mph6.1 kmh 30.24 in1024.0 mb 0.00 in0.0 mm 0.00 in0.0 mm 0.00 in0.0 mm
08:05 PM 54.0°F12.2°C 43.3°F6.3°C 67% 0.6 mph NW1.0 kmh NW 3.1 mph5.0 kmh 30.24 in1024.0 mb 0.00 in0.0 mm 0.00 in0.0 mm 0.00 in0.0 mm
08:10 PM 54.1°F12.3°C 43.0°F6.1°C 66% 0.5 mph WNW0.8 kmh WNW 3.1 mph5.0 kmh 30.24 in1024.0 mb 0.00 in0.0 mm 0.00 in0.0 mm 0.00 in0.0 mm
08:15 PM 54.1°F12.3°C 43.0°F6.1°C 66% 0.5 mph W0.8 kmh W 2.2 mph3.5 kmh 30.24 in1024.0 mb 0.00 in0.0 mm 0.00 in0.0 mm 0.00 in0.0 mm
08:20 PM 54.1°F12.3°C 43.0°F6.1°C 66% 0.8 mph W1.3 kmh W 3.1 mph5.0 kmh 30.24 in1024.0 mb 0.00 in0.0 mm 0.00 in0.0 mm 0.00 in0.0 mm
08:25 PM 54.1°F12.3°C 43.0°F6.1°C 66% 0.8 mph WNW1.3 kmh WNW 3.1 mph5.0 kmh 30.24 in1024.0 mb 0.00 in0.0 mm 0.00 in0.0 mm 0.00 in0.0 mm
08:30 PM 54.1°F12.3°C 43.0°F6.1°C 66% 0.7 mph NW1.1 kmh NW 2.2 mph3.5 kmh 30.24 in1024.0 mb 0.00 in0.0 mm 0.00 in0.0 mm 0.00 in0.0 mm
08:35 PM 54.1°F12.3°C 43.0°F6.1°C 66% 0.6 mph WNW1.0 kmh WNW 2.2 mph3.5 kmh 30.24 in1024.0 mb 0.00 in0.0 mm 0.00 in0.0 mm 0.00 in0.0 mm
08:40 PM 54.1°F12.3°C 43.0°F6.1°C 66% 0.8 mph WNW1.3 kmh WNW 3.8 mph6.1 kmh 30.24 in1024.0 mb 0.00 in0.0 mm 0.00 in0.0 mm 0.00 in0.0 mm
08:45 PM 54.1°F12.3°C 43.0°F6.1°C 66% 1.0 mph WNW1.6 kmh WNW 4.5 mph7.2 kmh 30.24 in1024.0 mb 0.00 in0.0 mm 0.00 in0.0 mm 0.00 in0.0 mm
08:50 PM 54.3°F12.4°C 43.2°F6.2°C 66% 0.6 mph WNW1.0 kmh WNW 4.5 mph7.2 kmh 30.24 in1024.0 mb 0.00 in0.0 mm 0.00 in0.0 mm 0.00 in0.0 mm
08:55 PM 54.3°F12.4°C 43.2°F6.2°C 66% 0.6 mph W1.0 kmh W 2.2 mph3.5 kmh 30.25 in1024.4 mb 0.00 in0.0 mm 0.00 in0.0 mm 0.00 in0.0 mm
09:00 PM 54.1°F12.3°C 43.0°F6.1°C 66% 0.6 mph W1.0 kmh W 2.2 mph3.5 kmh 30.24 in1024.0 mb 0.00 in0.0 mm 0.00 in0.0 mm 0.00 in0.0 mm
09:05 PM 54.3°F12.4°C 43.6°F6.4°C 67% 0.3 mph WSW0.5 kmh WSW 2.2 mph3.5 kmh 30.25 in1024.4 mb 0.00 in0.0 mm 0.00 in0.0 mm 0.00 in0.0 mm
09:10 PM 54.1°F12.3°C 43.4°F6.3°C 67% 0.1 mph W0.2 kmh W 1.6 mph2.6 kmh 30.25 in1024.4 mb 0.00 in0.0 mm 0.00 in0.0 mm 0.00 in0.0 mm
09:15 PM 54.1°F12.3°C 43.4°F6.3°C 67% 0.1 mph NW0.2 kmh NW 2.2 mph3.5 kmh 30.25 in1024.4 mb 0.00 in0.0 mm 0.00 in0.0 mm 0.00 in0.0 mm
09:20 PM 54.1°F12.3°C 43.4°F6.3°C 67% 0.3 mph NE0.5 kmh NE 3.1 mph5.0 kmh 30.25 in1024.4 mb 0.00 in0.0 mm 0.00 in0.0 mm 0.00 in0.0 mm
09:25 PM 54.1°F12.3°C 43.8°F6.6°C 68% 0.5 mph ENE0.8 kmh ENE 3.8 mph6.1 kmh 30.25 in1024.4 mb 0.00 in0.0 mm 0.00 in0.0 mm 0.00 in0.0 mm
09:30 PM 54.0°F12.2°C 43.6°F6.4°C 68% 0.4 mph ENE0.6 kmh ENE 3.8 mph6.1 kmh 30.25 in1024.4 mb 0.00 in0.0 mm 0.00 in0.0 mm 0.00 in0.0 mm
09:35 PM 54.0°F12.2°C 43.6°F6.4°C 68% 0.4 mph E0.6 kmh E 2.2 mph3.5 kmh 30.25 in1024.4 mb 0.00 in0.0 mm 0.00 in0.0 mm 0.00 in0.0 mm
09:40 PM 53.8°F12.1°C 43.5°F6.4°C 68% 0.3 mph E0.5 kmh E 2.2 mph3.5 kmh 30.25 in1024.4 mb 0.00 in0.0 mm 0.00 in0.0 mm 0.00 in0.0 mm
09:45 PM 53.8°F12.1°C 43.9°F6.6°C 69% 0.3 mph SE0.5 kmh SE 2.2 mph3.5 kmh 30.25 in1024.4 mb 0.00 in0.0 mm 0.00 in0.0 mm 0.00 in0.0 mm
09:50 PM 53.6°F12.0°C 43.7°F6.5°C 69% 0.4 mph SE0.6 kmh SE 2.2 mph3.5 kmh 30.25 in1024.4 mb 0.00 in0.0 mm 0.00 in0.0 mm 0.00 in0.0 mm
09:55 PM 53.2°F11.8°C 44.1°F6.7°C 71% 0.6 mph SE1.0 kmh SE 3.8 mph6.1 kmh 30.25 in1024.4 mb 0.00 in0.0 mm 0.00 in0.0 mm 0.00 in0.0 mm
10:00 PM 52.9°F11.6°C 44.1°F6.7°C 72% 0.5 mph SE0.8 kmh SE 3.8 mph6.1 kmh 30.25 in1024.4 mb 0.00 in0.0 mm 0.00 in0.0 mm 0.00 in0.0 mm
10:05 PM 52.5°F11.4°C 44.1°F6.7°C 73% 0.4 mph S0.6 kmh S 2.2 mph3.5 kmh 30.25 in1024.4 mb 0.00 in0.0 mm 0.00 in0.0 mm 0.00 in0.0 mm
10:10 PM 52.2°F11.2°C 43.8°F6.6°C 73% 1.1 mph SSW1.8 kmh SSW 3.1 mph5.0 kmh 30.25 in1024.4 mb 0.00 in0.0 mm 0.00 in0.0 mm 0.00 in0.0 mm
10:15 PM 52.2°F11.2°C 44.1°F6.7°C 74% 1.3 mph SSW2.1 kmh SSW 3.1 mph5.0 kmh 30.25 in1024.4 mb 0.00 in0.0 mm 0.00 in0.0 mm 0.00 in0.0 mm
10:20 PM 52.0°F11.1°C 44.0°F6.7°C 74% 0.5 mph SSW0.8 kmh SSW 2.2 mph3.5 kmh 30.25 in1024.4 mb 0.00 in0.0 mm 0.00 in0.0 mm 0.00 in0.0 mm
10:25 PM 51.4°F10.8°C 43.8°F6.6°C 75% 0.1 mph WSW0.2 kmh WSW 1.6 mph2.6 kmh 30.25 in1024.4 mb 0.00 in0.0 mm 0.00 in0.0 mm 0.00 in0.0 mm
10:30 PM 51.1°F10.6°C 43.8°F6.6°C 76% 0.2 mph WSW0.3 kmh WSW 1.6 mph2.6 kmh 30.25 in1024.4 mb 0.00 in0.0 mm 0.00 in0.0 mm 0.00 in0.0 mm
10:35 PM 50.7°F10.4°C 43.8°F6.6°C 77% 0.1 mph W0.2 kmh W 1.6 mph2.6 kmh 30.25 in1024.4 mb 0.00 in0.0 mm 0.00 in0.0 mm 0.00 in0.0 mm
10:40 PM 50.9°F10.5°C 44.3°F6.8°C 78% Calm Calm 0.7 mph1.1 kmh 30.25 in1024.4 mb 0.00 in0.0 mm 0.00 in0.0 mm 0.00 in0.0 mm
10:45 PM 51.1°F10.6°C 44.1°F6.7°C 77% 0.1 mph SW0.2 kmh SW 1.6 mph2.6 kmh 30.25 in1024.4 mb 0.00 in0.0 mm 0.00 in0.0 mm 0.00 in0.0 mm
10:50 PM 51.1°F10.6°C 44.1°F6.7°C 77% 0.1 mph SW0.2 kmh SW 1.6 mph2.6 kmh 30.25 in1024.4 mb 0.00 in0.0 mm 0.00 in0.0 mm 0.00 in0.0 mm
10:55 PM 50.9°F10.5°C 44.3°F6.8°C 78% Calm Calm 1.6 mph2.6 kmh 30.25 in1024.4 mb 0.00 in0.0 mm 0.00 in0.0 mm 0.00 in0.0 mm
11:00 PM 50.9°F10.5°C 44.3°F6.8°C 78% 0.2 mph SW0.3 kmh SW 1.6 mph2.6 kmh 30.25 in1024.4 mb 0.00 in0.0 mm 0.00 in0.0 mm 0.00 in0.0 mm
11:05 PM 50.7°F10.4°C 44.5°F6.9°C 79% 0.2 mph SW0.3 kmh SW 1.6 mph2.6 kmh 30.25 in1024.4 mb 0.00 in0.0 mm 0.00 in0.0 mm 0.00 in0.0 mm
11:10 PM 50.5°F10.3°C 44.3°F6.8°C 79% Calm Calm 0.7 mph1.1 kmh 30.25 in1024.4 mb 0.00 in0.0 mm 0.00 in0.0 mm 0.00 in0.0 mm
11:15 PM 50.4°F10.2°C 44.1°F6.7°C 79% Calm Calm -- 30.25 in1024.4 mb 0.00 in0.0 mm 0.00 in0.0 mm 0.00 in0.0 mm
11:20 PM 49.8°F9.9°C 43.9°F6.6°C 80% Calm Calm -- 30.25 in1024.4 mb 0.00 in0.0 mm 0.00 in0.0 mm 0.00 in0.0 mm
11:25 PM 49.5°F9.7°C 44.2°F6.8°C 82% 0.4 mph S0.6 kmh S 3.1 mph5.0 kmh 30.25 in1024.4 mb 0.00 in0.0 mm 0.00 in0.0 mm 0.00 in0.0 mm
11:30 PM 49.3°F9.6°C 44.3°F6.8°C 83% 1.3 mph SSW2.1 kmh SSW 3.1 mph5.0 kmh 30.25 in1024.4 mb 0.00 in0.0 mm 0.00 in0.0 mm 0.00 in0.0 mm
11:35 PM 48.9°F9.4°C 44.0°F6.7°C 83% 1.6 mph SW2.6 kmh SW 3.1 mph5.0 kmh 30.25 in1024.4 mb 0.00 in0.0 mm 0.00 in0.0 mm 0.00 in0.0 mm
11:40 PM 48.7°F9.3°C 44.1°F6.7°C 84% 1.2 mph SW1.9 kmh SW 3.1 mph5.0 kmh 30.25 in1024.4 mb 0.00 in0.0 mm 0.00 in0.0 mm 0.00 in0.0 mm
11:45 PM 48.6°F9.2°C 44.0°F6.7°C 84% 0.6 mph SW1.0 kmh SW 2.2 mph3.5 kmh 30.25 in1024.4 mb 0.00 in0.0 mm 0.00 in0.0 mm 0.00 in0.0 mm
11:50 PM 48.4°F9.1°C 43.8°F6.6°C 84% 0.1 mph SW0.2 kmh SW 2.2 mph3.5 kmh 30.25 in1024.4 mb 0.00 in0.0 mm 0.00 in0.0 mm 0.00 in0.0 mm
11:55 PM 48.2°F9.0°C 43.9°F6.6°C 85% 0.2 mph SW0.3 kmh SW 1.6 mph2.6 kmh 30.25 in1024.4 mb 0.00 in0.0 mm 0.00 in0.0 mm 0.00 in0.0 mm